sensor_id;sensor_type;location;lat;lon;timestamp;P1;durP1;ratioP1;P2;durP2;ratioP2
49366;SDS011;35245;52.026;8.540;2023-04-06T00:00:13;14.73;;;7.45;;
49366;SDS011;35245;52.026;8.540;2023-04-06T00:02:41;9.73;;;6.72;;
49366;SDS011;35245;52.026;8.540;2023-04-06T00:05:10;14.07;;;7.80;;
49366;SDS011;35245;52.026;8.540;2023-04-06T00:07:36;12.75;;;7.78;;
49366;SDS011;35245;52.026;8.540;2023-04-06T00:10:04;12.23;;;7.35;;
49366;SDS011;35245;52.026;8.540;2023-04-06T00:12:32;11.98;;;7.68;;
49366;SDS011;35245;52.026;8.540;2023-04-06T00:14:58;12.10;;;7.97;;
49366;SDS011;35245;52.026;8.540;2023-04-06T00:17:26;12.85;;;7.88;;
49366;SDS011;35245;52.026;8.540;2023-04-06T00:19:53;14.23;;;7.63;;
49366;SDS011;35245;52.026;8.540;2023-04-06T00:22:21;11.30;;;7.63;;
49366;SDS011;35245;52.026;8.540;2023-04-06T00:24:48;10.77;;;6.82;;
49366;SDS011;35245;52.026;8.540;2023-04-06T00:27:15;11.65;;;7.20;;
49366;SDS011;35245;52.026;8.540;2023-04-06T00:29:43;11.50;;;7.55;;
49366;SDS011;35245;52.026;8.540;2023-04-06T00:32:10;12.15;;;8.00;;
49366;SDS011;35245;52.026;8.540;2023-04-06T00:34:37;14.18;;;7.70;;
49366;SDS011;35245;52.026;8.540;2023-04-06T00:37:04;15.00;;;7.35;;
49366;SDS011;35245;52.026;8.540;2023-04-06T00:39:32;14.00;;;7.18;;
49366;SDS011;35245;52.026;8.540;2023-04-06T00:42:10;13.15;;;7.93;;
49366;SDS011;35245;52.026;8.540;2023-04-06T00:44:38;10.90;;;6.45;;
49366;SDS011;35245;52.026;8.540;2023-04-06T00:47:05;9.90;;;6.55;;
49366;SDS011;35245;52.026;8.540;2023-04-06T00:49:32;12.15;;;6.38;;
49366;SDS011;35245;52.026;8.540;2023-04-06T00:52:00;11.02;;;6.88;;
49366;SDS011;35245;52.026;8.540;2023-04-06T00:54:27;9.95;;;6.20;;
49366;SDS011;35245;52.026;8.540;2023-04-06T00:56:56;11.07;;;6.05;;
49366;SDS011;35245;52.026;8.540;2023-04-06T00:59:23;11.45;;;6.85;;
49366;SDS011;35245;52.026;8.540;2023-04-06T01:01:50;10.25;;;6.85;;
49366;SDS011;35245;52.026;8.540;2023-04-06T01:04:17;12.00;;;6.53;;
49366;SDS011;35245;52.026;8.540;2023-04-06T01:06:44;11.38;;;6.53;;
49366;SDS011;35245;52.026;8.540;2023-04-06T01:09:11;10.65;;;6.80;;
49366;SDS011;35245;52.026;8.540;2023-04-06T01:11:38;13.38;;;7.15;;
49366;SDS011;35245;52.026;8.540;2023-04-06T01:14:07;9.88;;;6.43;;
49366;SDS011;35245;52.026;8.540;2023-04-06T01:16:34;11.20;;;6.88;;
49366;SDS011;35245;52.026;8.540;2023-04-06T01:19:01;11.20;;;6.60;;
49366;SDS011;35245;52.026;8.540;2023-04-06T01:21:30;10.35;;;6.55;;
49366;SDS011;35245;52.026;8.540;2023-04-06T01:23:59;11.57;;;6.50;;
49366;SDS011;35245;52.026;8.540;2023-04-06T01:26:26;12.57;;;7.07;;
49366;SDS011;35245;52.026;8.540;2023-04-06T01:28:54;11.98;;;6.90;;
49366;SDS011;35245;52.026;8.540;2023-04-06T01:31:21;9.02;;;5.85;;
49366;SDS011;35245;52.026;8.540;2023-04-06T01:33:48;10.80;;;6.50;;
49366;SDS011;35245;52.026;8.540;2023-04-06T01:36:15;14.20;;;7.00;;
49366;SDS011;35245;52.026;8.540;2023-04-06T01:38:42;10.27;;;6.72;;
49366;SDS011;35245;52.026;8.540;2023-04-06T01:41:11;9.02;;;6.18;;
49366;SDS011;35245;52.026;8.540;2023-04-06T01:43:38;11.50;;;6.35;;
49366;SDS011;35245;52.026;8.540;2023-04-06T01:46:05;9.95;;;6.28;;
49366;SDS011;35245;52.026;8.540;2023-04-06T01:48:32;11.48;;;6.20;;
49366;SDS011;35245;52.026;8.540;2023-04-06T01:50:59;17.90;;;7.65;;
49366;SDS011;35245;52.026;8.540;2023-04-06T01:53:26;11.65;;;6.82;;
49366;SDS011;35245;52.026;8.540;2023-04-06T01:55:53;9.55;;;6.35;;
49366;SDS011;35245;52.026;8.540;2023-04-06T01:58:21;10.23;;;6.03;;
49366;SDS011;35245;52.026;8.540;2023-04-06T02:00:48;10.10;;;6.22;;
49366;SDS011;35245;52.026;8.540;2023-04-06T02:03:15;12.40;;;7.20;;
49366;SDS011;35245;52.026;8.540;2023-04-06T02:05:42;9.68;;;6.50;;
49366;SDS011;35245;52.026;8.540;2023-04-06T02:08:10;11.35;;;5.93;;
49366;SDS011;35245;52.026;8.540;2023-04-06T02:10:36;10.10;;;6.70;;
49366;SDS011;35245;52.026;8.540;2023-04-06T02:13:03;14.00;;;7.40;;
49366;SDS011;35245;52.026;8.540;2023-04-06T02:15:32;10.15;;;6.00;;
49366;SDS011;35245;52.026;8.540;2023-04-06T02:17:59;11.75;;;7.03;;
49366;SDS011;35245;52.026;8.540;2023-04-06T02:20:26;12.52;;;6.05;;
49366;SDS011;35245;52.026;8.540;2023-04-06T02:22:53;9.90;;;6.20;;
49366;SDS011;35245;52.026;8.540;2023-04-06T02:25:22;9.23;;;5.70;;
49366;SDS011;35245;52.026;8.540;2023-04-06T02:27:49;8.55;;;5.88;;
49366;SDS011;35245;52.026;8.540;2023-04-06T02:30:16;10.10;;;6.05;;
49366;SDS011;35245;52.026;8.540;2023-04-06T02:32:45;10.48;;;6.25;;
49366;SDS011;35245;52.026;8.540;2023-04-06T02:35:12;11.23;;;6.57;;
49366;SDS011;35245;52.026;8.540;2023-04-06T02:37:39;8.77;;;6.20;;
49366;SDS011;35245;52.026;8.540;2023-04-06T02:40:06;9.90;;;6.75;;
49366;SDS011;35245;52.026;8.540;2023-04-06T02:42:34;9.85;;;6.78;;
49366;SDS011;35245;52.026;8.540;2023-04-06T02:45:01;12.68;;;6.38;;
49366;SDS011;35245;52.026;8.540;2023-04-06T02:47:28;12.85;;;6.60;;
49366;SDS011;35245;52.026;8.540;2023-04-06T02:49:56;10.57;;;6.82;;
49366;SDS011;35245;52.026;8.540;2023-04-06T02:52:23;9.20;;;6.30;;
49366;SDS011;35245;52.026;8.540;2023-04-06T02:54:50;12.23;;;6.93;;
49366;SDS011;35245;52.026;8.540;2023-04-06T02:57:17;9.95;;;6.35;;
49366;SDS011;35245;52.026;8.540;2023-04-06T02:59:44;10.05;;;6.18;;
49366;SDS011;35245;52.026;8.540;2023-04-06T03:02:11;8.18;;;6.57;;
49366;SDS011;35245;52.026;8.540;2023-04-06T03:04:38;12.40;;;6.97;;
49366;SDS011;35245;52.026;8.540;2023-04-06T03:07:07;12.38;;;7.75;;
49366;SDS011;35245;52.026;8.540;2023-04-06T03:09:36;11.00;;;6.25;;
49366;SDS011;35245;52.026;8.540;2023-04-06T03:12:03;13.35;;;6.90;;
49366;SDS011;35245;52.026;8.540;2023-04-06T03:14:31;11.18;;;6.97;;
49366;SDS011;35245;52.026;8.540;2023-04-06T03:16:58;12.88;;;7.93;;
49366;SDS011;35245;52.026;8.540;2023-04-06T03:19:25;11.82;;;6.72;;
49366;SDS011;35245;52.026;8.540;2023-04-06T03:21:52;12.85;;;6.78;;
49366;SDS011;35245;52.026;8.540;2023-04-06T03:24:20;12.13;;;7.18;;
49366;SDS011;35245;52.026;8.540;2023-04-06T03:26:47;12.88;;;7.25;;
49366;SDS011;35245;52.026;8.540;2023-04-06T03:29:14;15.70;;;7.38;;
49366;SDS011;35245;52.026;8.540;2023-04-06T03:31:41;10.43;;;6.93;;
49366;SDS011;35245;52.026;8.540;2023-04-06T03:34:08;10.88;;;7.13;;
49366;SDS011;35245;52.026;8.540;2023-04-06T03:36:35;11.07;;;7.18;;
49366;SDS011;35245;52.026;8.540;2023-04-06T03:39:02;11.85;;;7.30;;
49366;SDS011;35245;52.026;8.540;2023-04-06T03:41:31;10.93;;;6.97;;
49366;SDS011;35245;52.026;8.540;2023-04-06T03:43:58;10.95;;;7.95;;
49366;SDS011;35245;52.026;8.540;2023-04-06T03:46:25;13.27;;;6.95;;
49366;SDS011;35245;52.026;8.540;2023-04-06T03:48:52;12.20;;;8.35;;
49366;SDS011;35245;52.026;8.540;2023-04-06T03:51:19;13.95;;;7.50;;
49366;SDS011;35245;52.026;8.540;2023-04-06T03:53:46;12.30;;;7.78;;
49366;SDS011;35245;52.026;8.540;2023-04-06T03:56:13;13.52;;;8.23;;
49366;SDS011;35245;52.026;8.540;2023-04-06T03:58:41;14.00;;;7.47;;
49366;SDS011;35245;52.026;8.540;2023-04-06T04:01:10;13.00;;;7.47;;
49366;SDS011;35245;52.026;8.540;2023-04-06T04:03:37;11.93;;;7.50;;
49366;SDS011;35245;52.026;8.540;2023-04-06T04:06:04;16.65;;;8.77;;
49366;SDS011;35245;52.026;8.540;2023-04-06T04:08:31;12.18;;;8.23;;
49366;SDS011;35245;52.026;8.540;2023-04-06T04:10:58;12.27;;;7.95;;
49366;SDS011;35245;52.026;8.540;2023-04-06T04:13:25;12.88;;;8.15;;
49366;SDS011;35245;52.026;8.540;2023-04-06T04:15:53;13.30;;;8.38;;
49366;SDS011;35245;52.026;8.540;2023-04-06T04:18:20;12.30;;;7.85;;
49366;SDS011;35245;52.026;8.540;2023-04-06T04:20:47;17.45;;;8.18;;
49366;SDS011;35245;52.026;8.540;2023-04-06T04:23:14;11.30;;;7.95;;
49366;SDS011;35245;52.026;8.540;2023-04-06T04:25:41;14.80;;;8.45;;
49366;SDS011;35245;52.026;8.540;2023-04-06T04:28:09;11.70;;;7.57;;
49366;SDS011;35245;52.026;8.540;2023-04-06T04:30:36;12.82;;;8.05;;
49366;SDS011;35245;52.026;8.540;2023-04-06T04:33:04;14.80;;;8.27;;
49366;SDS011;35245;52.026;8.540;2023-04-06T04:35:31;14.93;;;8.38;;
49366;SDS011;35245;52.026;8.540;2023-04-06T04:37:58;13.35;;;8.82;;
49366;SDS011;35245;52.026;8.540;2023-04-06T04:40:25;13.30;;;8.90;;
49366;SDS011;35245;52.026;8.540;2023-04-06T04:42:52;14.98;;;9.13;;
49366;SDS011;35245;52.026;8.540;2023-04-06T04:45:19;15.15;;;8.90;;
49366;SDS011;35245;52.026;8.540;2023-04-06T04:47:46;12.40;;;8.60;;
49366;SDS011;35245;52.026;8.540;2023-04-06T04:50:15;13.43;;;9.27;;
49366;SDS011;35245;52.026;8.540;2023-04-06T04:52:42;13.10;;;8.80;;
49366;SDS011;35245;52.026;8.540;2023-04-06T04:55:09;17.13;;;9.57;;
49366;SDS011;35245;52.026;8.540;2023-04-06T04:57:36;16.75;;;9.32;;
49366;SDS011;35245;52.026;8.540;2023-04-06T05:00:03;14.98;;;9.63;;
49366;SDS011;35245;52.026;8.540;2023-04-06T05:02:30;16.05;;;9.32;;
49366;SDS011;35245;52.026;8.540;2023-04-06T05:04:57;14.55;;;9.40;;
49366;SDS011;35245;52.026;8.540;2023-04-06T05:07:26;16.35;;;9.45;;
49366;SDS011;35245;52.026;8.540;2023-04-06T05:09:53;15.30;;;10.02;;
49366;SDS011;35245;52.026;8.540;2023-04-06T05:12:20;15.68;;;9.68;;
49366;SDS011;35245;52.026;8.540;2023-04-06T05:14:47;15.93;;;9.57;;
49366;SDS011;35245;52.026;8.540;2023-04-06T05:17:14;13.63;;;8.75;;
49366;SDS011;35245;52.026;8.540;2023-04-06T05:19:42;16.90;;;9.25;;
49366;SDS011;35245;52.026;8.540;2023-04-06T05:22:09;14.10;;;9.40;;
49366;SDS011;35245;52.026;8.540;2023-04-06T05:24:37;15.35;;;9.07;;
49366;SDS011;35245;52.026;8.540;2023-04-06T05:27:05;13.88;;;8.68;;
49366;SDS011;35245;52.026;8.540;2023-04-06T05:29:32;14.48;;;9.10;;
49366;SDS011;35245;52.026;8.540;2023-04-06T05:32:00;17.30;;;9.82;;
49366;SDS011;35245;52.026;8.540;2023-04-06T05:34:27;15.27;;;9.00;;
49366;SDS011;35245;52.026;8.540;2023-04-06T05:36:54;14.70;;;9.80;;
49366;SDS011;35245;52.026;8.540;2023-04-06T05:39:21;15.98;;;9.55;;
49366;SDS011;35245;52.026;8.540;2023-04-06T05:41:50;16.75;;;9.45;;
49366;SDS011;35245;52.026;8.540;2023-04-06T05:44:17;17.95;;;10.05;;
49366;SDS011;35245;52.026;8.540;2023-04-06T05:46:44;12.75;;;9.10;;
49366;SDS011;35245;52.026;8.540;2023-04-06T05:49:11;15.20;;;9.45;;
49366;SDS011;35245;52.026;8.540;2023-04-06T05:51:38;14.20;;;9.40;;
49366;SDS011;35245;52.026;8.540;2023-04-06T05:54:05;16.52;;;9.68;;
49366;SDS011;35245;52.026;8.540;2023-04-06T05:56:32;15.55;;;10.48;;
49366;SDS011;35245;52.026;8.540;2023-04-06T05:59:01;14.63;;;9.80;;
49366;SDS011;35245;52.026;8.540;2023-04-06T06:01:28;16.73;;;9.63;;
49366;SDS011;35245;52.026;8.540;2023-04-06T06:03:55;16.23;;;9.93;;
49366;SDS011;35245;52.026;8.540;2023-04-06T06:06:22;18.13;;;10.55;;
49366;SDS011;35245;52.026;8.540;2023-04-06T06:08:50;16.83;;;10.38;;
49366;SDS011;35245;52.026;8.540;2023-04-06T06:11:17;17.67;;;10.40;;
49366;SDS011;35245;52.026;8.540;2023-04-06T06:13:44;17.13;;;9.88;;
49366;SDS011;35245;52.026;8.540;2023-04-06T06:16:13;18.73;;;11.25;;
49366;SDS011;35245;52.026;8.540;2023-04-06T06:18:40;16.13;;;9.70;;
49366;SDS011;35245;52.026;8.540;2023-04-06T06:21:07;16.80;;;10.23;;
49366;SDS011;35245;52.026;8.540;2023-04-06T06:23:34;16.45;;;10.70;;
49366;SDS011;35245;52.026;8.540;2023-04-06T06:26:01;17.15;;;9.93;;
49366;SDS011;35245;52.026;8.540;2023-04-06T06:28:28;20.77;;;11.73;;
49366;SDS011;35245;52.026;8.540;2023-04-06T06:30:55;17.80;;;10.25;;
49366;SDS011;35245;52.026;8.540;2023-04-06T06:33:24;14.32;;;9.90;;
49366;SDS011;35245;52.026;8.540;2023-04-06T06:35:52;17.65;;;9.55;;
49366;SDS011;35245;52.026;8.540;2023-04-06T06:38:19;16.48;;;9.27;;
49366;SDS011;35245;52.026;8.540;2023-04-06T06:40:46;13.55;;;9.80;;
49366;SDS011;35245;52.026;8.540;2023-04-06T06:43:13;21.38;;;10.40;;
49366;SDS011;35245;52.026;8.540;2023-04-06T06:45:40;14.63;;;8.98;;
49366;SDS011;35245;52.026;8.540;2023-04-06T06:48:07;15.25;;;9.85;;
49366;SDS011;35245;52.026;8.540;2023-04-06T06:50:36;16.75;;;9.75;;
49366;SDS011;35245;52.026;8.540;2023-04-06T06:53:03;16.08;;;9.68;;
49366;SDS011;35245;52.026;8.540;2023-04-06T06:55:30;14.55;;;9.02;;
49366;SDS011;35245;52.026;8.540;2023-04-06T06:57:57;16.08;;;9.38;;
49366;SDS011;35245;52.026;8.540;2023-04-06T07:00:24;14.73;;;9.32;;
49366;SDS011;35245;52.026;8.540;2023-04-06T07:02:51;12.77;;;8.90;;
49366;SDS011;35245;52.026;8.540;2023-04-06T07:05:18;12.80;;;9.55;;
49366;SDS011;35245;52.026;8.540;2023-04-06T07:07:47;16.23;;;9.77;;
49366;SDS011;35245;52.026;8.540;2023-04-06T07:10:14;14.70;;;9.00;;
49366;SDS011;35245;52.026;8.540;2023-04-06T07:12:41;15.15;;;9.38;;
49366;SDS011;35245;52.026;8.540;2023-04-06T07:15:08;16.00;;;9.85;;
49366;SDS011;35245;52.026;8.540;2023-04-06T07:17:36;14.95;;;9.32;;
49366;SDS011;35245;52.026;8.540;2023-04-06T07:20:03;12.98;;;8.48;;
49366;SDS011;35245;52.026;8.540;2023-04-06T07:22:31;15.70;;;8.38;;
49366;SDS011;35245;52.026;8.540;2023-04-06T07:24:59;16.42;;;9.07;;
49366;SDS011;35245;52.026;8.540;2023-04-06T07:27:26;14.63;;;9.18;;
49366;SDS011;35245;52.026;8.540;2023-04-06T07:29:53;16.58;;;8.60;;
49366;SDS011;35245;52.026;8.540;2023-04-06T07:32:20;14.15;;;8.43;;
49366;SDS011;35245;52.026;8.540;2023-04-06T07:34:47;12.13;;;8.25;;
49366;SDS011;35245;52.026;8.540;2023-04-06T07:37:14;15.65;;;9.15;;
49366;SDS011;35245;52.026;8.540;2023-04-06T07:39:41;15.48;;;7.47;;
49366;SDS011;35245;52.026;8.540;2023-04-06T07:42:09;12.98;;;8.35;;
49366;SDS011;35245;52.026;8.540;2023-04-06T07:44:36;13.57;;;8.32;;
49366;SDS011;35245;52.026;8.540;2023-04-06T07:47:03;13.70;;;8.10;;
49366;SDS011;35245;52.026;8.540;2023-04-06T07:49:30;13.13;;;7.65;;
49366;SDS011;35245;52.026;8.540;2023-04-06T07:51:58;13.98;;;8.05;;
49366;SDS011;35245;52.026;8.540;2023-04-06T07:54:25;11.15;;;7.55;;
49366;SDS011;35245;52.026;8.540;2023-04-06T07:56:52;13.05;;;7.70;;
49366;SDS011;35245;52.026;8.540;2023-04-06T07:59:21;14.82;;;8.23;;
49366;SDS011;35245;52.026;8.540;2023-04-06T08:01:48;15.38;;;9.32;;
49366;SDS011;35245;52.026;8.540;2023-04-06T08:04:15;13.80;;;7.47;;
49366;SDS011;35245;52.026;8.540;2023-04-06T08:06:42;13.75;;;7.45;;
49366;SDS011;35245;52.026;8.540;2023-04-06T08:09:09;13.52;;;7.75;;
49366;SDS011;35245;52.026;8.540;2023-04-06T08:11:36;15.35;;;7.78;;
49366;SDS011;35245;52.026;8.540;2023-04-06T08:14:03;14.43;;;8.57;;
49366;SDS011;35245;52.026;8.540;2023-04-06T08:16:32;13.57;;;7.72;;
49366;SDS011;35245;52.026;8.540;2023-04-06T08:18:59;12.77;;;7.68;;
49366;SDS011;35245;52.026;8.540;2023-04-06T08:21:26;14.75;;;8.63;;
49366;SDS011;35245;52.026;8.540;2023-04-06T08:23:53;14.73;;;8.57;;
49366;SDS011;35245;52.026;8.540;2023-04-06T08:26:20;14.48;;;7.63;;
49366;SDS011;35245;52.026;8.540;2023-04-06T08:28:47;15.40;;;8.20;;
49366;SDS011;35245;52.026;8.540;2023-04-06T08:31:14;9.77;;;6.63;;
49366;SDS011;35245;52.026;8.540;2023-04-06T08:33:42;11.70;;;7.80;;
49366;SDS011;35245;52.026;8.540;2023-04-06T08:36:10;12.88;;;7.53;;
49366;SDS011;35245;52.026;8.540;2023-04-06T08:38:39;16.20;;;7.65;;
49366;SDS011;35245;52.026;8.540;2023-04-06T08:41:08;12.63;;;6.55;;
49366;SDS011;35245;52.026;8.540;2023-04-06T08:43:38;11.93;;;6.93;;
49366;SDS011;35245;52.026;8.540;2023-04-06T08:46:09;12.10;;;6.30;;
49366;SDS011;35245;52.026;8.540;2023-04-06T08:48:36;15.00;;;6.32;;
49366;SDS011;35245;52.026;8.540;2023-04-06T08:51:06;11.55;;;6.10;;
49366;SDS011;35245;52.026;8.540;2023-04-06T08:53:34;9.68;;;6.15;;
49366;SDS011;35245;52.026;8.540;2023-04-06T08:56:01;13.38;;;6.57;;
49366;SDS011;35245;52.026;8.540;2023-04-06T08:58:32;10.80;;;5.78;;
49366;SDS011;35245;52.026;8.540;2023-04-06T09:01:01;11.02;;;6.57;;
49366;SDS011;35245;52.026;8.540;2023-04-06T09:03:29;10.65;;;6.43;;
49366;SDS011;35245;52.026;8.540;2023-04-06T09:05:57;12.07;;;6.72;;
49366;SDS011;35245;52.026;8.540;2023-04-06T09:08:26;14.35;;;6.97;;
49366;SDS011;35245;52.026;8.540;2023-04-06T09:10:53;11.07;;;5.95;;
49366;SDS011;35245;52.026;8.540;2023-04-06T09:13:20;12.35;;;6.53;;
49366;SDS011;35245;52.026;8.540;2023-04-06T09:15:57;20.23;;;7.15;;
49366;SDS011;35245;52.026;8.540;2023-04-06T09:18:27;10.95;;;6.20;;
49366;SDS011;35245;52.026;8.540;2023-04-06T09:21:00;12.73;;;6.93;;
49366;SDS011;35245;52.026;8.540;2023-04-06T09:26:04;11.88;;;7.63;;
49366;SDS011;35245;52.026;8.540;2023-04-06T09:28:44;14.82;;;7.07;;
49366;SDS011;35245;52.026;8.540;2023-04-06T09:31:12;11.27;;;6.38;;
49366;SDS011;35245;52.026;8.540;2023-04-06T09:33:40;12.00;;;7.50;;
49366;SDS011;35245;52.026;8.540;2023-04-06T09:36:10;15.52;;;7.20;;
49366;SDS011;35245;52.026;8.540;2023-04-06T09:38:39;11.38;;;7.75;;
49366;SDS011;35245;52.026;8.540;2023-04-06T09:41:20;10.85;;;6.65;;
49366;SDS011;35245;52.026;8.540;2023-04-06T09:43:49;15.05;;;7.90;;
49366;SDS011;35245;52.026;8.540;2023-04-06T09:46:16;13.27;;;7.32;;
49366;SDS011;35245;52.026;8.540;2023-04-06T09:48:44;11.60;;;6.70;;
49366;SDS011;35245;52.026;8.540;2023-04-06T09:51:11;13.05;;;6.90;;
49366;SDS011;35245;52.026;8.540;2023-04-06T09:53:42;11.63;;;7.07;;
49366;SDS011;35245;52.026;8.540;2023-04-06T09:56:11;13.40;;;7.20;;
49366;SDS011;35245;52.026;8.540;2023-04-06T09:58:39;12.25;;;7.05;;
49366;SDS011;35245;52.026;8.540;2023-04-06T10:01:08;10.60;;;6.32;;
49366;SDS011;35245;52.026;8.540;2023-04-06T10:03:38;11.15;;;7.28;;
49366;SDS011;35245;52.026;8.540;2023-04-06T10:06:11;18.60;;;9.90;;
49366;SDS011;35245;52.026;8.540;2023-04-06T10:08:39;11.57;;;7.47;;
49366;SDS011;35245;52.026;8.540;2023-04-06T10:11:08;17.40;;;7.88;;
49366;SDS011;35245;52.026;8.540;2023-04-06T10:13:36;12.27;;;7.82;;
49366;SDS011;35245;52.026;8.540;2023-04-06T10:16:03;12.40;;;7.82;;
49366;SDS011;35245;52.026;8.540;2023-04-06T10:18:32;23.23;;;9.57;;
49366;SDS011;35245;52.026;8.540;2023-04-06T10:21:01;15.90;;;8.75;;
49366;SDS011;35245;52.026;8.540;2023-04-06T10:23:32;14.57;;;7.73;;
49366;SDS011;35245;52.026;8.540;2023-04-06T10:26:03;55.05;;;11.05;;
49366;SDS011;35245;52.026;8.540;2023-04-06T10:28:30;15.27;;;8.05;;
49366;SDS011;35245;52.026;8.540;2023-04-06T10:30:59;13.40;;;8.45;;
49366;SDS011;35245;52.026;8.540;2023-04-06T10:33:26;13.43;;;8.18;;
49366;SDS011;35245;52.026;8.540;2023-04-06T10:35:55;12.00;;;8.25;;
49366;SDS011;35245;52.026;8.540;2023-04-06T10:38:32;17.33;;;9.23;;
49366;SDS011;35245;52.026;8.540;2023-04-06T10:41:04;13.18;;;9.15;;
49366;SDS011;35245;52.026;8.540;2023-04-06T10:46:00;13.40;;;8.50;;
49366;SDS011;35245;52.026;8.540;2023-04-06T10:48:36;12.35;;;8.65;;
49366;SDS011;35245;52.026;8.540;2023-04-06T10:51:08;14.25;;;8.70;;
49366;SDS011;35245;52.026;8.540;2023-04-06T10:53:36;13.10;;;8.73;;
49366;SDS011;35245;52.026;8.540;2023-04-06T10:56:05;13.65;;;8.60;;
49366;SDS011;35245;52.026;8.540;2023-04-06T10:58:37;12.57;;;9.15;;
49366;SDS011;35245;52.026;8.540;2023-04-06T11:01:04;13.55;;;9.00;;
49366;SDS011;35245;52.026;8.540;2023-04-06T11:03:31;16.17;;;9.52;;
49366;SDS011;35245;52.026;8.540;2023-04-06T11:06:03;13.75;;;8.07;;
49366;SDS011;35245;52.026;8.540;2023-04-06T11:08:30;14.75;;;9.82;;
49366;SDS011;35245;52.026;8.540;2023-04-06T11:11:07;13.90;;;8.77;;
49366;SDS011;35245;52.026;8.540;2023-04-06T11:13:39;13.50;;;7.88;;
49366;SDS011;35245;52.026;8.540;2023-04-06T11:16:06;17.08;;;9.63;;
49366;SDS011;35245;52.026;8.540;2023-04-06T11:18:38;14.45;;;8.80;;
49366;SDS011;35245;52.026;8.540;2023-04-06T11:21:12;15.07;;;9.57;;
49366;SDS011;35245;52.026;8.540;2023-04-06T11:23:39;15.50;;;9.52;;
49366;SDS011;35245;52.026;8.540;2023-04-06T11:26:11;14.85;;;9.35;;
49366;SDS011;35245;52.026;8.540;2023-04-06T11:28:39;14.55;;;9.30;;
49366;SDS011;35245;52.026;8.540;2023-04-06T11:31:06;13.60;;;8.88;;
49366;SDS011;35245;52.026;8.540;2023-04-06T11:33:37;15.40;;;9.75;;
49366;SDS011;35245;52.026;8.540;2023-04-06T11:36:05;20.77;;;10.17;;
49366;SDS011;35245;52.026;8.540;2023-04-06T11:38:32;15.20;;;9.48;;
49366;SDS011;35245;52.026;8.540;2023-04-06T11:41:00;15.23;;;9.73;;
49366;SDS011;35245;52.026;8.540;2023-04-06T11:43:30;15.63;;;9.90;;
49366;SDS011;35245;52.026;8.540;2023-04-06T11:46:00;14.90;;;9.95;;
49366;SDS011;35245;52.026;8.540;2023-04-06T11:48:28;16.55;;;10.00;;
49366;SDS011;35245;52.026;8.540;2023-04-06T11:50:56;15.18;;;9.80;;
49366;SDS011;35245;52.026;8.540;2023-04-06T11:53:25;15.15;;;10.48;;
49366;SDS011;35245;52.026;8.540;2023-04-06T11:55:53;13.93;;;10.10;;
49366;SDS011;35245;52.026;8.540;2023-04-06T11:58:19;14.38;;;10.23;;
49366;SDS011;35245;52.026;8.540;2023-04-06T12:00:48;14.88;;;10.63;;
49366;SDS011;35245;52.026;8.540;2023-04-06T12:03:15;14.18;;;10.30;;
49366;SDS011;35245;52.026;8.540;2023-04-06T12:05:43;14.27;;;9.63;;
49366;SDS011;35245;52.026;8.540;2023-04-06T12:08:10;25.30;;;10.07;;
49366;SDS011;35245;52.026;8.540;2023-04-06T12:10:37;14.32;;;10.82;;
49366;SDS011;35245;52.026;8.540;2023-04-06T12:13:04;14.65;;;10.68;;
49366;SDS011;35245;52.026;8.540;2023-04-06T12:15:31;16.90;;;9.93;;
49366;SDS011;35245;52.026;8.540;2023-04-06T12:18:00;15.27;;;10.13;;
49366;SDS011;35245;52.026;8.540;2023-04-06T12:20:27;12.68;;;9.85;;
49366;SDS011;35245;52.026;8.540;2023-04-06T12:22:54;245.10;;;25.67;;
49366;SDS011;35245;52.026;8.540;2023-04-06T12:25:21;36.55;;;9.10;;
49366;SDS011;35245;52.026;8.540;2023-04-06T12:27:48;12.77;;;8.20;;
49366;SDS011;35245;52.026;8.540;2023-04-06T12:30:16;12.60;;;8.27;;
49366;SDS011;35245;52.026;8.540;2023-04-06T12:32:43;10.30;;;7.97;;
49366;SDS011;35245;52.026;8.540;2023-04-06T12:35:11;13.32;;;8.70;;
49366;SDS011;35245;52.026;8.540;2023-04-06T12:37:40;11.40;;;8.02;;
49366;SDS011;35245;52.026;8.540;2023-04-06T12:40:08;20.95;;;9.85;;
49366;SDS011;35245;52.026;8.540;2023-04-06T12:42:38;13.80;;;8.48;;
49366;SDS011;35245;52.026;8.540;2023-04-06T12:45:06;11.90;;;8.77;;
49366;SDS011;35245;52.026;8.540;2023-04-06T12:47:34;13.70;;;8.73;;
49366;SDS011;35245;52.026;8.540;2023-04-06T12:50:03;10.95;;;8.38;;
49366;SDS011;35245;52.026;8.540;2023-04-06T12:52:32;15.35;;;9.50;;
49366;SDS011;35245;52.026;8.540;2023-04-06T12:55:00;11.75;;;8.45;;
49366;SDS011;35245;52.026;8.540;2023-04-06T12:57:27;12.35;;;8.43;;
49366;SDS011;35245;52.026;8.540;2023-04-06T12:59:54;11.80;;;8.73;;
49366;SDS011;35245;52.026;8.540;2023-04-06T13:02:21;13.57;;;9.43;;
49366;SDS011;35245;52.026;8.540;2023-04-06T13:04:49;11.07;;;8.05;;
49366;SDS011;35245;52.026;8.540;2023-04-06T13:07:16;42.75;;;10.45;;
49366;SDS011;35245;52.026;8.540;2023-04-06T13:09:44;14.93;;;8.93;;
49366;SDS011;35245;52.026;8.540;2023-04-06T13:12:12;11.60;;;8.68;;
49366;SDS011;35245;52.026;8.540;2023-04-06T13:14:39;18.17;;;9.05;;
49366;SDS011;35245;52.026;8.540;2023-04-06T13:17:06;13.27;;;8.68;;
49366;SDS011;35245;52.026;8.540;2023-04-06T13:19:33;13.13;;;9.63;;
49366;SDS011;35245;52.026;8.540;2023-04-06T13:22:00;12.27;;;8.48;;
49366;SDS011;35245;52.026;8.540;2023-04-06T13:24:27;115.95;;;16.08;;
49366;SDS011;35245;52.026;8.540;2023-04-06T13:26:56;13.98;;;9.05;;
49366;SDS011;35245;52.026;8.540;2023-04-06T13:29:23;11.60;;;8.85;;
49366;SDS011;35245;52.026;8.540;2023-04-06T13:31:51;13.25;;;8.80;;
49366;SDS011;35245;52.026;8.540;2023-04-06T13:34:18;12.80;;;8.95;;
49366;SDS011;35245;52.026;8.540;2023-04-06T13:36:45;12.43;;;9.30;;
49366;SDS011;35245;52.026;8.540;2023-04-06T13:39:12;13.52;;;8.65;;
49366;SDS011;35245;52.026;8.540;2023-04-06T13:41:39;12.27;;;8.80;;
49366;SDS011;35245;52.026;8.540;2023-04-06T13:44:07;14.23;;;9.10;;
49366;SDS011;35245;52.026;8.540;2023-04-06T13:46:34;12.65;;;9.00;;
49366;SDS011;35245;52.026;8.540;2023-04-06T13:49:02;14.55;;;8.88;;
49366;SDS011;35245;52.026;8.540;2023-04-06T13:51:29;11.60;;;8.15;;
49366;SDS011;35245;52.026;8.540;2023-04-06T13:53:57;13.25;;;8.63;;
49366;SDS011;35245;52.026;8.540;2023-04-06T13:56:24;39.13;;;11.73;;
49366;SDS011;35245;52.026;8.540;2023-04-06T13:58:53;22.02;;;9.80;;
49366;SDS011;35245;52.026;8.540;2023-04-06T14:01:22;22.13;;;10.85;;
49366;SDS011;35245;52.026;8.540;2023-04-06T14:03:50;12.27;;;9.77;;
49366;SDS011;35245;52.026;8.540;2023-04-06T14:06:17;24.23;;;10.55;;
49366;SDS011;35245;52.026;8.540;2023-04-06T14:08:43;16.67;;;9.80;;
49366;SDS011;35245;52.026;8.540;2023-04-06T14:11:11;16.15;;;10.48;;
49366;SDS011;35245;52.026;8.540;2023-04-06T14:13:38;17.35;;;10.52;;
49366;SDS011;35245;52.026;8.540;2023-04-06T14:16:05;18.23;;;11.18;;
49366;SDS011;35245;52.026;8.540;2023-04-06T14:18:36;17.80;;;11.10;;
49366;SDS011;35245;52.026;8.540;2023-04-06T14:21:03;17.73;;;12.10;;
49366;SDS011;35245;52.026;8.540;2023-04-06T14:23:31;16.10;;;10.82;;
49366;SDS011;35245;52.026;8.540;2023-04-06T14:26:02;16.45;;;11.32;;
49366;SDS011;35245;52.026;8.540;2023-04-06T14:30:58;15.45;;;11.23;;
49366;SDS011;35245;52.026;8.540;2023-04-06T14:33:25;18.02;;;12.00;;
49366;SDS011;35245;52.026;8.540;2023-04-06T14:35:53;15.30;;;11.32;;
49366;SDS011;35245;52.026;8.540;2023-04-06T14:38:20;19.05;;;11.85;;
49366;SDS011;35245;52.026;8.540;2023-04-06T14:40:47;17.48;;;12.35;;
49366;SDS011;35245;52.026;8.540;2023-04-06T14:43:15;18.95;;;11.55;;